Time;durP1;ratioP1;P1;durP2;ratioP2;P2;SDS_P1;SDS_P2;PMS_P1;PMS_P2;Temp;Humidity;BMP_temperature;BMP_pressure;BME280_temperature;BME280_humidity;BME280_pressure;Samples;Min_cycle;Max_cycle;Signal;HPM_P1;HPM_P2
2023/08/08 00:02:15;;;;;;;33.03;10.90;;;;;;;;;;5070448;28;20041;-71
2023/08/08 00:04:41;;;;;;;28.58;9.57;;;;;;;;;;5052740;28;20482;-71
2023/08/08 00:07:08;;;;;;;23.33;8.90;;;;;;;;;;5070430;28;20339;-70
2023/08/08 00:09:34;;;;;;;39.63;9.75;;;;;;;;;;5052354;28;20469;-70
2023/08/08 00:12:00;;;;;;;32.05;10.13;;;;;;;;;;5052247;28;20060;-70
2023/08/08 00:14:26;;;;;;;25.45;9.63;;;;;;;;;;5069963;28;20031;-69
2023/08/08 00:16:53;;;;;;;33.42;10.23;;;;;;;;;;5070367;28;20047;-70
2023/08/08 00:19:19;;;;;;;31.00;9.10;;;;;;;;;;5035859;28;20063;-70
2023/08/08 00:21:45;;;;;;;35.33;9.73;;;;;;;;;;5070118;28;20029;-70
2023/08/08 00:24:11;;;;;;;31.35;9.68;;;;;;;;;;5052401;28;20052;-70
2023/08/08 00:26:38;;;;;;;25.58;9.07;;;;;;;;;;5070252;28;20076;-70
2023/08/08 00:29:04;;;;;;;33.75;10.43;;;;;;;;;;5052010;28;20024;-72
2023/08/08 00:31:30;;;;;;;32.13;9.60;;;;;;;;;;5070365;28;20435;-70
2023/08/08 00:33:56;;;;;;;40.30;11.82;;;;;;;;;;5051973;28;20182;-70
2023/08/08 00:36:22;;;;;;;31.20;9.60;;;;;;;;;;5070310;28;20054;-71
2023/08/08 00:38:49;;;;;;;32.97;10.27;;;;;;;;;;5052437;28;20103;-70
2023/08/08 00:41:15;;;;;;;25.83;8.77;;;;;;;;;;5070291;28;20044;-70
2023/08/08 00:43:43;;;;;;;30.50;11.10;;;;;;;;;;5069814;28;20052;-70
2023/08/08 00:46:10;;;;;;;34.70;9.77;;;;;;;;;;5052825;28;20037;-69
2023/08/08 00:48:36;;;;;;;38.75;9.40;;;;;;;;;;5052245;28;20036;-70
2023/08/08 00:51:02;;;;;;;37.45;10.85;;;;;;;;;;5052158;28;20029;-70
2023/08/08 00:53:31;;;;;;;40.67;10.38;;;;;;;;;;5069711;28;20086;-70
2023/08/08 00:55:59;;;;;;;31.27;9.93;;;;;;;;;;5052126;28;20120;-70
2023/08/08 00:58:26;;;;;;;34.72;9.65;;;;;;;;;;5052499;28;20051;-70
2023/08/08 01:00:54;;;;;;;35.08;10.18;;;;;;;;;;5070459;28;20103;-70
2023/08/08 01:03:20;;;;;;;33.10;10.57;;;;;;;;;;5072989;28;20098;-73
2023/08/08 01:06:05;;;;;;;40.08;11.45;;;;;;;;;;5056496;28;20037;-71
2023/08/08 01:08:45;;;;;;;35.35;10.77;;;;;;;;;;5074108;28;20031;-70
2023/08/08 01:11:13;;;;;;;25.25;9.07;;;;;;;;;;5074217;28;20052;-70
2023/08/08 01:13:41;;;;;;;26.77;9.73;;;;;;;;;;5055788;28;20028;-70
2023/08/08 01:16:08;;;;;;;39.55;10.45;;;;;;;;;;5073786;28;20033;-71
2023/08/08 01:18:35;;;;;;;30.65;10.13;;;;;;;;;;5056181;28;20062;-70
2023/08/08 01:21:02;;;;;;;26.48;9.75;;;;;;;;;;5073718;28;20072;-71
2023/08/08 01:23:41;;;;;;;25.85;10.00;;;;;;;;;;5055262;28;20033;-70
2023/08/08 01:26:07;;;;;;;35.13;9.45;;;;;;;;;;5055574;28;20072;-71
2023/08/08 01:28:34;;;;;;;27.95;10.00;;;;;;;;;;5055366;28;20045;-70
2023/08/08 01:31:00;;;;;;;30.73;9.40;;;;;;;;;;5039021;28;20070;-71
2023/08/08 01:33:27;;;;;;;27.83;9.68;;;;;;;;;;5073713;28;20028;-71
2023/08/08 01:36:13;;;;;;;23.02;8.82;;;;;;;;;;5072904;28;20142;-70
2023/08/08 01:38:44;;;;;;;30.92;10.00;;;;;;;;;;5073178;28;20085;-71
2023/08/08 01:41:10;;;;;;;34.25;11.35;;;;;;;;;;5073034;28;20028;-70
2023/08/08 01:43:39;;;;;;;32.17;9.68;;;;;;;;;;5072635;28;20113;-69
2023/08/08 01:46:06;;;;;;;24.83;9.50;;;;;;;;;;5054846;28;20028;-69
2023/08/08 01:48:32;;;;;;;25.95;8.68;;;;;;;;;;5073169;28;20033;-69
2023/08/08 01:50:58;;;;;;;21.13;8.30;;;;;;;;;;5054950;28;20017;-69
2023/08/08 01:53:25;;;;;;;28.27;8.77;;;;;;;;;;5055018;28;20438;-70
2023/08/08 01:55:52;;;;;;;28.40;8.70;;;;;;;;;;5055114;28;20054;-69
2023/08/08 01:58:18;;;;;;;21.33;8.50;;;;;;;;;;5055549;28;20525;-69
2023/08/08 02:00:46;;;;;;;25.42;8.48;;;;;;;;;;5054614;28;20127;-69
2023/08/08 02:03:13;;;;;;;26.33;8.75;;;;;;;;;;5055197;28;20036;-69
2023/08/08 02:05:39;;;;;;;21.17;8.57;;;;;;;;;;5072530;28;20044;-69
2023/08/08 02:08:05;;;;;;;19.98;8.50;;;;;;;;;;5054767;28;20146;-70
2023/08/08 02:10:31;;;;;;;19.75;8.25;;;;;;;;;;5054747;28;20036;-69
2023/08/08 02:12:57;;;;;;;17.33;7.00;;;;;;;;;;5072616;28;20045;-69
2023/08/08 02:15:24;;;;;;;14.00;7.38;;;;;;;;;;5072003;28;20029;-70
2023/08/08 02:17:50;;;;;;;18.55;6.60;;;;;;;;;;5073158;28;20409;-70
2023/08/08 02:20:17;;;;;;;12.75;7.28;;;;;;;;;;5072893;28;20405;-70
2023/08/08 02:22:44;;;;;;;19.90;6.18;;;;;;;;;;5071885;28;20032;-70
2023/08/08 02:25:11;;;;;;;15.38;5.53;;;;;;;;;;5072351;28;20036;-70
2023/08/08 02:27:37;;;;;;;16.55;5.20;;;;;;;;;;5068289;28;20051;-70
2023/08/08 02:30:03;;;;;;;24.65;5.80;;;;;;;;;;5092662;28;20042;-70
2023/08/08 02:32:30;;;;;;;12.70;5.57;;;;;;;;;;5074591;28;20376;-70
2023/08/08 02:34:56;;;;;;;14.48;5.95;;;;;;;;;;5092692;28;20110;-70
2023/08/08 02:37:22;;;;;;;13.13;5.22;;;;;;;;;;5074583;28;20032;-70
2023/08/08 02:39:48;;;;;;;20.90;6.85;;;;;;;;;;5074315;28;20036;-70
2023/08/08 02:42:15;;;;;;;12.75;5.57;;;;;;;;;;5074329;28;20139;-71
2023/08/08 02:44:42;;;;;;;19.17;5.55;;;;;;;;;;5092079;28;20078;-69
2023/08/08 02:47:09;;;;;;;18.48;5.53;;;;;;;;;;5092143;28;20211;-69
2023/08/08 02:49:35;;;;;;;10.52;5.03;;;;;;;;;;5091918;28;20040;-69
2023/08/08 02:52:01;;;;;;;16.00;5.50;;;;;;;;;;5073954;28;20043;-70
2023/08/08 02:54:31;;;;;;;10.48;4.97;;;;;;;;;;5073359;28;20028;-69
2023/08/08 02:56:57;;;;;;;14.82;5.40;;;;;;;;;;5073919;28;20039;-70
2023/08/08 02:59:24;;;;;;;13.85;5.60;;;;;;;;;;5073704;28;20028;-70
2023/08/08 03:01:52;;;;;;;11.80;4.85;;;;;;;;;;5073751;28;20034;-70
2023/08/08 03:04:18;;;;;;;14.35;5.88;;;;;;;;;;5073331;28;20032;-70
2023/08/08 03:06:45;;;;;;;11.15;5.00;;;;;;;;;;5073251;28;20039;-70
2023/08/08 03:09:11;;;;;;;13.45;5.07;;;;;;;;;;5057018;28;20032;-70
2023/08/08 03:11:41;;;;;;;12.52;4.88;;;;;;;;;;5056836;28;20028;-70
2023/08/08 03:14:09;;;;;;;9.77;4.30;;;;;;;;;;5091661;28;20035;-70
2023/08/08 03:16:36;;;;;;;11.13;5.10;;;;;;;;;;5073460;28;20028;-70
2023/08/08 03:19:03;;;;;;;10.88;4.78;;;;;;;;;;5091403;28;20085;-70
2023/08/08 03:21:29;;;;;;;11.65;4.43;;;;;;;;;;5073280;28;20058;-70
2023/08/08 03:23:57;;;;;;;14.90;4.60;;;;;;;;;;5073128;28;20024;-70
2023/08/08 03:26:23;;;;;;;13.93;4.85;;;;;;;;;;5072923;28;20036;-70
2023/08/08 03:28:50;;;;;;;10.45;4.40;;;;;;;;;;5073329;28;20028;-70
2023/08/08 03:31:20;;;;;;;10.98;4.45;;;;;;;;;;5091684;28;20044;-70
2023/08/08 03:33:47;;;;;;;10.40;4.65;;;;;;;;;;5073307;28;20040;-70
2023/08/08 03:36:14;;;;;;;10.18;4.25;;;;;;;;;;5073026;28;20029;-69
2023/08/08 03:38:44;;;;;;;13.25;4.53;;;;;;;;;;5091302;28;20036;-70
2023/08/08 03:41:10;;;;;;;14.10;4.90;;;;;;;;;;5057454;28;20047;-70
2023/08/08 03:43:36;;;;;;;14.30;4.57;;;;;;;;;;5072791;28;20519;-70
2023/08/08 03:46:02;;;;;;;15.70;4.40;;;;;;;;;;5073136;28;20038;-70
2023/08/08 03:48:29;;;;;;;11.57;4.93;;;;;;;;;;5073354;28;20401;-70
2023/08/08 03:50:56;;;;;;;7.63;4.00;;;;;;;;;;5056434;28;20020;-69
2023/08/08 03:53:22;;;;;;;10.15;4.65;;;;;;;;;;5073283;28;20032;-70
2023/08/08 03:55:49;;;;;;;10.30;4.20;;;;;;;;;;5072669;28;20035;-70
2023/08/08 03:58:16;;;;;;;13.30;4.30;;;;;;;;;;5072522;28;20065;-70
2023/08/08 04:00:46;;;;;;;13.30;4.97;;;;;;;;;;5090857;28;20040;-70
2023/08/08 04:03:16;;;;;;;11.65;4.70;;;;;;;;;;5072701;28;20036;-69
2023/08/08 04:05:48;;;;;;;14.35;4.25;;;;;;;;;;5055823;28;20028;-70
2023/08/08 04:08:17;;;;;;;12.38;3.97;;;;;;;;;;5090992;28;20244;-70
2023/08/08 04:10:44;;;;;;;10.40;4.10;;;;;;;;;;5091040;28;20036;-70
2023/08/08 04:13:10;;;;;;;9.90;3.85;;;;;;;;;;5072507;28;20028;-69
2023/08/08 04:15:37;;;;;;;11.10;3.50;;;;;;;;;;5072583;28;20078;-70
2023/08/08 04:18:03;;;;;;;12.80;4.43;;;;;;;;;;5055909;28;20133;-70
2023/08/08 04:20:29;;;;;;;14.05;3.75;;;;;;;;;;5090881;28;20024;-70
2023/08/08 04:22:55;;;;;;;8.32;3.67;;;;;;;;;;5089503;28;20052;-70
2023/08/08 04:25:21;;;;;;;9.80;3.45;;;;;;;;;;5089758;28;20024;-70
2023/08/08 04:27:47;;;;;;;12.52;3.50;;;;;;;;;;5088343;28;20107;-70
2023/08/08 04:30:13;;;;;;;13.13;4.00;;;;;;;;;;5090471;28;20043;-69
2023/08/08 04:32:39;;;;;;;14.38;3.67;;;;;;;;;;5090577;28;20024;-69
2023/08/08 04:35:06;;;;;;;8.02;3.08;;;;;;;;;;5090059;28;20097;-69
2023/08/08 04:37:32;;;;;;;12.98;3.20;;;;;;;;;;5092047;28;20555;-70
2023/08/08 04:39:58;;;;;;;10.70;3.42;;;;;;;;;;5094928;28;20036;-69
2023/08/08 04:42:24;;;;;;;11.32;4.10;;;;;;;;;;5076547;28;20066;-70
2023/08/08 04:44:50;;;;;;;12.63;2.63;;;;;;;;;;5076356;28;20040;-69
2023/08/08 04:47:16;;;;;;;6.93;2.70;;;;;;;;;;5076469;28;20024;-69
2023/08/08 04:49:42;;;;;;;13.57;3.20;;;;;;;;;;5094579;28;20028;-69
2023/08/08 04:52:08;;;;;;;10.65;3.13;;;;;;;;;;5094774;28;20085;-70
2023/08/08 04:54:34;;;;;;;9.23;2.88;;;;;;;;;;5094634;28;20036;-70
2023/08/08 04:57:01;;;;;;;8.90;2.63;;;;;;;;;;5094607;28;20038;-70
2023/08/08 04:59:28;;;;;;;7.70;2.38;;;;;;;;;;5094706;28;20479;-70
2023/08/08 05:01:54;;;;;;;9.93;2.58;;;;;;;;;;5076076;28;20060;-70
2023/08/08 05:04:20;;;;;;;10.77;2.72;;;;;;;;;;5093962;28;20455;-70
2023/08/08 05:06:46;;;;;;;10.32;2.85;;;;;;;;;;5093931;28;20056;-70
2023/08/08 05:09:12;;;;;;;10.00;2.67;;;;;;;;;;5094231;28;20040;-70
2023/08/08 05:11:38;;;;;;;11.38;3.03;;;;;;;;;;5076250;28;20100;-69
2023/08/08 05:14:04;;;;;;;10.70;2.30;;;;;;;;;;5093787;28;20024;-69
2023/08/08 05:16:30;;;;;;;10.27;3.33;;;;;;;;;;5093987;28;20029;-69
2023/08/08 05:18:57;;;;;;;11.38;3.15;;;;;;;;;;5093999;28;20074;-69
2023/08/08 05:21:23;;;;;;;11.98;2.47;;;;;;;;;;5076121;28;20180;-69
2023/08/08 05:23:49;;;;;;;8.95;2.03;;;;;;;;;;5075492;28;20032;-69
2023/08/08 05:26:16;;;;;;;6.90;2.03;;;;;;;;;;5075567;28;20051;-70
2023/08/08 05:28:42;;;;;;;10.68;2.20;;;;;;;;;;5093408;28;20024;-69
2023/08/08 05:31:09;;;;;;;15.15;3.15;;;;;;;;;;5058762;28;20060;-70
2023/08/08 05:33:35;;;;;;;9.82;1.90;;;;;;;;;;5059261;28;20397;-70
2023/08/08 05:36:01;;;;;;;7.60;2.33;;;;;;;;;;5075537;28;20024;-69
2023/08/08 05:38:27;;;;;;;9.95;2.00;;;;;;;;;;5093808;28;20524;-72
2023/08/08 05:40:53;;;;;;;8.15;1.80;;;;;;;;;;5058675;28;20036;-69
2023/08/08 05:43:21;;;;;;;10.23;2.08;;;;;;;;;;5075724;28;20105;-68
2023/08/08 05:45:48;;;;;;;9.70;2.20;;;;;;;;;;5075106;28;20035;-70
2023/08/08 05:48:14;;;;;;;8.13;1.92;;;;;;;;;;5074503;28;20032;-69
2023/08/08 05:50:41;;;;;;;11.05;2.45;;;;;;;;;;5092953;28;20020;-70
2023/08/08 05:53:07;;;;;;;7.30;1.90;;;;;;;;;;5093429;28;20024;-70
2023/08/08 05:55:33;;;;;;;6.22;2.00;;;;;;;;;;5075096;28;20072;-70
2023/08/08 05:58:00;;;;;;;9.85;2.05;;;;;;;;;;5093507;28;20036;-70
2023/08/08 06:00:26;;;;;;;7.28;1.48;;;;;;;;;;5093554;28;20059;-70
2023/08/08 06:02:52;;;;;;;7.35;1.88;;;;;;;;;;5093587;28;20132;-70
2023/08/08 06:05:18;;;;;;;8.00;1.90;;;;;;;;;;5075071;28;20031;-70
2023/08/08 06:07:46;;;;;;;4.05;1.40;;;;;;;;;;5092916;28;20435;-70
2023/08/08 06:10:12;;;;;;;5.90;1.73;;;;;;;;;;5093297;28;20138;-70
2023/08/08 06:12:38;;;;;;;10.50;1.73;;;;;;;;;;5075086;28;20020;-71
2023/08/08 06:15:05;;;;;;;9.02;1.60;;;;;;;;;;5092702;28;20028;-71
2023/08/08 06:17:31;;;;;;;7.75;1.83;;;;;;;;;;5092882;28;20145;-70
2023/08/08 06:19:57;;;;;;;6.00;1.63;;;;;;;;;;5093195;28;20462;-71
2023/08/08 06:22:23;;;;;;;8.40;1.58;;;;;;;;;;5092868;28;20113;-71
2023/08/08 06:24:49;;;;;;;8.23;1.80;;;;;;;;;;5074658;28;20036;-71
2023/08/08 06:27:15;;;;;;;8.63;2.47;;;;;;;;;;5092752;28;20040;-71
2023/08/08 06:29:41;;;;;;;7.15;1.65;;;;;;;;;;5074581;28;20032;-71
2023/08/08 06:32:08;;;;;;;7.03;1.40;;;;;;;;;;5074755;28;20028;-69
2023/08/08 06:34:34;;;;;;;5.90;1.40;;;;;;;;;;5092554;28;20024;-69
2023/08/08 06:37:00;;;;;;;5.90;1.45;;;;;;;;;;5092438;28;20093;-70
2023/08/08 06:39:26;;;;;;;8.57;1.40;;;;;;;;;;5092558;28;20036;-70
2023/08/08 06:41:52;;;;;;;6.47;1.58;;;;;;;;;;5092492;28;20025;-71
2023/08/08 06:44:32;;;;;;;6.30;1.67;;;;;;;;;;5073692;28;20036;-70
2023/08/08 06:46:58;;;;;;;11.40;1.50;;;;;;;;;;5091990;28;20083;-70
2023/08/08 06:49:24;;;;;;;7.28;1.35;;;;;;;;;;5074352;28;20080;-70
2023/08/08 06:51:50;;;;;;;5.68;1.40;;;;;;;;;;5092211;28;20028;-70
2023/08/08 06:54:17;;;;;;;4.07;1.20;;;;;;;;;;5073634;28;20029;-70
2023/08/08 06:56:43;;;;;;;6.18;1.45;;;;;;;;;;5091571;28;20028;-70
2023/08/08 06:59:09;;;;;;;7.07;1.40;;;;;;;;;;5074072;28;20024;-71
2023/08/08 07:01:35;;;;;;;8.57;1.90;;;;;;;;;;5091436;28;20044;-70
2023/08/08 07:04:01;;;;;;;6.65;1.20;;;;;;;;;;5091920;28;20035;-71
2023/08/08 07:06:27;;;;;;;5.65;1.20;;;;;;;;;;5092037;28;20779;-71
2023/08/08 07:08:53;;;;;;;3.65;1.10;;;;;;;;;;5091904;28;20366;-70
2023/08/08 07:11:20;;;;;;;6.40;1.17;;;;;;;;;;5091608;28;20036;-70
2023/08/08 07:13:46;;;;;;;5.40;1.08;;;;;;;;;;5091586;28;20107;-70
2023/08/08 07:16:12;;;;;;;3.97;1.23;;;;;;;;;;5056906;28;20074;-70
2023/08/08 07:18:39;;;;;;;6.03;1.10;;;;;;;;;;5073495;28;20036;-70
2023/08/08 07:21:05;;;;;;;4.47;1.40;;;;;;;;;;5073243;28;20031;-70
2023/08/08 07:23:32;;;;;;;6.07;1.33;;;;;;;;;;5091770;28;20418;-71
2023/08/08 07:25:58;;;;;;;6.80;1.20;;;;;;;;;;5090818;28;20048;-70
2023/08/08 07:28:24;;;;;;;6.53;1.50;;;;;;;;;;5091334;28;20057;-69
2023/08/08 07:30:50;;;;;;;2.83;1.08;;;;;;;;;;5091294;28;20028;-69
2023/08/08 07:33:16;;;;;;;7.28;1.30;;;;;;;;;;5073261;28;20024;-70
2023/08/08 07:35:43;;;;;;;7.88;1.48;;;;;;;;;;5091047;28;20118;-68
2023/08/08 07:38:09;;;;;;;4.97;1.20;;;;;;;;;;5091178;28;20058;-70
2023/08/08 07:40:35;;;;;;;7.13;1.20;;;;;;;;;;5073082;28;20040;-70
2023/08/08 07:43:02;;;;;;;5.43;1.20;;;;;;;;;;5091283;28;20161;-70
2023/08/08 07:45:28;;;;;;;12.20;2.65;;;;;;;;;;5090642;28;20054;-71
2023/08/08 07:47:54;;;;;;;4.55;1.08;;;;;;;;;;5072688;28;20556;-70
2023/08/08 07:50:20;;;;;;;6.15;1.00;;;;;;;;;;5039836;28;20020;-68
2023/08/08 07:52:46;;;;;;;6.07;1.10;;;;;;;;;;5072890;28;20451;-67
2023/08/08 07:55:12;;;;;;;6.43;1.17;;;;;;;;;;5072528;28;20040;-70
2023/08/08 07:57:39;;;;;;;4.60;1.08;;;;;;;;;;5072821;28;20040;-68
2023/08/08 08:00:11;;;;;;;3.90;1.30;;;;;;;;;;5072962;28;20051;-70
2023/08/08 08:02:43;;;;;;;4.55;1.00;;;;;;;;;;5090645;28;20489;-70
2023/08/08 08:05:10;;;;;;;4.80;0.90;;;;;;;;;;5090488;28;20400;-70
2023/08/08 08:07:37;;;;;;;5.18;0.95;;;;;;;;;;5090073;28;20535;-69
2023/08/08 08:10:04;;;;;;;6.40;1.25;;;;;;;;;;5090830;28;20031;-69
2023/08/08 08:12:31;;;;;;;3.72;0.95;;;;;;;;;;5089122;28;20036;-69
2023/08/08 08:14:57;;;;;;;5.15;0.85;;;;;;;;;;5054999;28;20046;-69
2023/08/08 08:17:23;;;;;;;4.80;1.55;;;;;;;;;;5090713;28;20497;-69
2023/08/08 08:19:51;;;;;;;4.70;1.02;;;;;;;;;;5055838;28;20032;-71
2023/08/08 08:22:17;;;;;;;7.55;1.00;;;;;;;;;;5089924;28;20032;-69
2023/08/08 08:24:43;;;;;;;4.03;0.98;;;;;;;;;;5089418;28;20477;-70
2023/08/08 08:27:09;;;;;;;2.95;0.80;;;;;;;;;;5089704;28;20035;-69
2023/08/08 08:29:35;;;;;;;2.35;0.90;;;;;;;;;;5071530;28;20117;-69
2023/08/08 08:32:01;;;;;;;7.38;1.15;;;;;;;;;;5071804;28;20432;-69
2023/08/08 08:34:27;;;;;;;3.05;1.00;;;;;;;;;;5089861;28;20051;-69
2023/08/08 08:36:53;;;;;;;3.55;0.80;;;;;;;;;;5089479;28;20198;-69
2023/08/08 08:39:20;;;;;;;6.70;0.98;;;;;;;;;;5037951;28;20841;-70
2023/08/08 08:41:49;;;;;;;4.25;1.00;;;;;;;;;;5071617;28;20047;-69
2023/08/08 08:44:16;;;;;;;4.07;0.80;;;;;;;;;;5089764;28;20048;-69
2023/08/08 08:46:43;;;;;;;4.80;1.00;;;;;;;;;;5089419;28;20024;-69
2023/08/08 08:49:10;;;;;;;3.42;0.90;;;;;;;;;;5089279;28;20035;-70
2023/08/08 08:51:39;;;;;;;3.90;1.10;;;;;;;;;;5071887;28;20053;-70
2023/08/08 08:54:06;;;;;;;5.72;1.10;;;;;;;;;;5071617;28;20074;-70
2023/08/08 08:56:32;;;;;;;4.47;1.08;;;;;;;;;;5089556;28;20040;-70
2023/08/08 08:58:59;;;;;;;5.05;1.05;;;;;;;;;;5089652;28;20028;-68
2023/08/08 09:01:25;;;;;;;2.95;1.00;;;;;;;;;;5089628;28;20032;-70
2023/08/08 09:03:51;;;;;;;4.68;1.05;;;;;;;;;;5089320;28;20034;-69
2023/08/08 09:06:19;;;;;;;2.30;1.00;;;;;;;;;;5089290;28;20063;-69
2023/08/08 09:08:46;;;;;;;4.40;1.10;;;;;;;;;;5089519;28;20043;-69
2023/08/08 09:11:13;;;;;;;7.53;1.17;;;;;;;;;;5071970;28;20385;-69
2023/08/08 09:13:39;;;;;;;5.78;0.90;;;;;;;;;;5084479;28;20149;-69
2023/08/08 09:16:09;;;;;;;5.10;1.25;;;;;;;;;;5060840;28;20058;-70
2023/08/08 09:18:38;;;;;;;5.55;1.20;;;;;;;;;;5089736;28;20055;-70
2023/08/08 09:21:05;;;;;;;5.53;1.02;;;;;;;;;;5072617;28;20603;-70
2023/08/08 09:23:31;;;;;;;6.60;1.33;;;;;;;;;;5091589;28;20036;-70
2023/08/08 09:25:58;;;;;;;3.72;1.10;;;;;;;;;;5093068;28;20074;-69
2023/08/08 09:28:25;;;;;;;7.95;1.20;;;;;;;;;;5093422;28;20028;-70
2023/08/08 09:30:51;;;;;;;4.68;1.08;;;;;;;;;;5058842;28;20119;-69
2023/08/08 09:33:18;;;;;;;10.25;2.65;;;;;;;;;;5093872;28;20043;-70
2023/08/08 09:35:45;;;;;;;3.92;1.02;;;;;;;;;;5075074;28;20040;-69
2023/08/08 09:38:11;;;;;;;3.47;1.05;;;;;;;;;;5093604;28;20024;-70
2023/08/08 09:40:37;;;;;;;7.10;1.08;;;;;;;;;;5093265;28;20040;-70
2023/08/08 09:43:03;;;;;;;6.10;1.00;;;;;;;;;;5093290;28;20038;-71
2023/08/08 09:45:37;;;;;;;4.07;1.00;;;;;;;;;;5075523;28;20059;-69
2023/08/08 09:48:04;;;;;;;6.60;0.90;;;;;;;;;;5093317;28;20032;-69
2023/08/08 09:50:32;;;;;;;4.53;1.25;;;;;;;;;;5075496;28;20028;-76
2023/08/08 09:52:59;;;;;;;6.13;1.10;;;;;;;;;;5093541;28;20028;-69
2023/08/08 09:55:25;;;;;;;4.28;1.25;;;;;;;;;;5093722;28;20029;-70
2023/08/08 09:57:52;;;;;;;5.50;1.10;;;;;;;;;;5093824;28;20048;-70
2023/08/08 10:00:20;;;;;;;3.80;1.33;;;;;;;;;;5093436;28;20039;-69
2023/08/08 10:02:47;;;;;;;3.47;1.02;;;;;;;;;;5093388;28;20384;-69
2023/08/08 10:05:15;;;;;;;2.33;1.13;;;;;;;;;;5057153;28;20411;-70
2023/08/08 10:07:41;;;;;;;4.43;0.90;;;;;;;;;;5072560;28;20039;-70
2023/08/08 10:10:09;;;;;;;5.95;1.23;;;;;;;;;;5072862;28;20044;-70
2023/08/08 10:12:37;;;;;;;2.42;0.90;;;;;;;;;;5054795;28;20060;-69
2023/08/08 10:15:04;;;;;;;3.63;1.20;;;;;;;;;;5072919;28;20398;-69
2023/08/08 10:17:35;;;;;;;5.15;1.50;;;;;;;;;;5072764;28;20036;-69
2023/08/08 10:20:09;;;;;;;3.40;1.00;;;;;;;;;;5072796;28;20036;-69
2023/08/08 10:22:36;;;;;;;3.35;1.08;;;;;;;;;;5088149;28;20032;-69
2023/08/08 10:25:04;;;;;;;6.53;1.30;;;;;;;;;;5074351;28;20232;-69
2023/08/08 10:27:37;;;;;;;5.43;1.00;;;;;;;;;;5092417;28;20036;-70
2023/08/08 10:30:10;;;;;;;4.90;0.95;;;;;;;;;;5092708;28;20024;-69
2023/08/08 10:32:46;;;;;;;2.85;1.20;;;;;;;;;;5092704;28;20020;-70
2023/08/08 10:35:12;;;;;;;4.28;1.00;;;;;;;;;;5091844;28;20020;-69
2023/08/08 10:37:39;;;;;;;4.82;0.90;;;;;;;;;;5073656;28;20059;-70
2023/08/08 10:40:07;;;;;;;5.22;1.00;;;;;;;;;;5091886;28;20105;-69
2023/08/08 10:42:33;;;;;;;4.15;1.08;;;;;;;;;;5092399;28;20039;-70
2023/08/08 10:45:00;;;;;;;4.18;1.00;;;;;;;;;;5092079;28;20085;-69
2023/08/08 10:47:31;;;;;;;6.18;0.98;;;;;;;;;;5091739;28;20030;-69
2023/08/08 10:50:13;;;;;;;5.00;1.15;;;;;;;;;;5092159;28;20490;-69
2023/08/08 10:52:51;;;;;;;3.58;1.35;;;;;;;;;;5092297;28;20081;-70
2023/08/08 10:55:31;;;;;;;4.53;1.15;;;;;;;;;;5091857;28;20039;-70
2023/08/08 10:57:57;;;;;;;1.70;0.85;;;;;;;;;;5091729;28;20028;-68
2023/08/08 11:00:29;;;;;;;3.85;1.65;;;;;;;;;;5092123;28;20058;-70
2023/08/08 11:02:55;;;;;;;2.45;0.90;;;;;;;;;;5091898;28;20043;-69
2023/08/08 11:05:22;;;;;;;4.88;1.23;;;;;;;;;;5073856;28;20103;-69
2023/08/08 11:07:49;;;;;;;3.40;0.90;;;;;;;;;;5091464;28;20071;-70
2023/08/08 11:10:15;;;;;;;2.78;1.00;;;;;;;;;;5091808;28;20139;-70
2023/08/08 11:12:41;;;;;;;2.67;0.85;;;;;;;;;;5091703;28;20044;-69
2023/08/08 11:15:08;;;;;;;3.95;1.25;;;;;;;;;;5091377;28;20102;-70
2023/08/08 11:17:34;;;;;;;3.08;1.00;;;;;;;;;;5091562;28;20043;-70
2023/08/08 11:20:01;;;;;;;3.55;0.95;;;;;;;;;;5091640;28;20127;-69
2023/08/08 11:22:27;;;;;;;4.90;1.20;;;;;;;;;;5073858;28;20044;-69
2023/08/08 11:24:57;;;;;;;2.22;0.95;;;;;;;;;;5092181;28;20028;-72
2023/08/08 11:27:24;;;;;;;6.65;0.90;;;;;;;;;;5091445;28;20046;-71
2023/08/08 11:29:51;;;;;;;3.33;0.93;;;;;;;;;;5091764;28;20100;-69
2023/08/08 11:32:17;;;;;;;3.78;1.00;;;;;;;;;;5091688;28;20043;-68
2023/08/08 11:34:44;;;;;;;8.10;1.02;;;;;;;;;;5071635;28;20474;-69
2023/08/08 11:37:11;;;;;;;4.95;1.08;;;;;;;;;;5070930;28;20082;-69
2023/08/08 11:39:37;;;;;;;7.18;1.17;;;;;;;;;;5071259;28;20040;-69
2023/08/08 11:42:04;;;;;;;3.85;0.80;;;;;;;;;;5070788;28;20123;-68
2023/08/08 11:44:30;;;;;;;2.65;1.08;;;;;;;;;;5071019;28;20064;-69
2023/08/08 11:47:00;;;;;;;4.47;0.88;;;;;;;;;;5052725;28;20036;-69
2023/08/08 11:49:26;;;;;;;6.43;1.03;;;;;;;;;;5071206;28;20115;-69
2023/08/08 11:51:59;;;;;;;2.17;1.17;;;;;;;;;;5053185;28;20064;-69
2023/08/08 11:54:28;;;;;;;3.83;1.23;;;;;;;;;;5071511;28;20048;-69
2023/08/08 11:56:55;;;;;;;4.22;1.00;;;;;;;;;;5070673;28;20028;-70
2023/08/08 11:59:21;;;;;;;9.38;1.48;;;;;;;;;;5053104;28;20066;-69
2023/08/08 12:01:50;;;;;;;3.67;1.05;;;;;;;;;;5070602;28;20033;-68
2023/08/08 12:04:16;;;;;;;3.58;0.90;;;;;;;;;;5070515;28;20033;-68
2023/08/08 12:06:43;;;;;;;5.20;1.40;;;;;;;;;;5069955;28;20482;-68
2023/08/08 12:09:12;;;;;;;4.15;0.90;;;;;;;;;;5070275;28;20087;-68
2023/08/08 12:11:39;;;;;;;2.78;1.10;;;;;;;;;;5070208;28;20079;-69
2023/08/08 12:14:08;;;;;;;4.50;1.35;;;;;;;;;;5070380;28;20091;-69
2023/08/08 12:16:34;;;;;;;3.83;1.20;;;;;;;;;;5070497;28;20089;-68
2023/08/08 12:19:08;;;;;;;4.07;1.10;;;;;;;;;;5070257;28;20032;-69
2023/08/08 12:21:35;;;;;;;6.75;1.63;;;;;;;;;;5078024;28;20020;-69
2023/08/08 12:24:02;;;;;;;3.97;1.10;;;;;;;;;;5055885;28;20035;-69
2023/08/08 12:26:28;;;;;;;4.80;1.20;;;;;;;;;;5072466;28;20125;-69
2023/08/08 12:28:55;;;;;;;5.20;1.10;;;;;;;;;;5090204;28;20038;-69
2023/08/08 12:31:21;;;;;;;6.35;1.20;;;;;;;;;;5071982;28;20086;-68
2023/08/08 12:33:48;;;;;;;3.47;1.02;;;;;;;;;;5090433;28;20032;-69
2023/08/08 12:36:14;;;;;;;4.95;1.20;;;;;;;;;;5090224;28;20173;-69
2023/08/08 12:38:41;;;;;;;4.45;1.08;;;;;;;;;;5072584;28;20149;-68
2023/08/08 12:41:07;;;;;;;6.10;1.10;;;;;;;;;;5090458;28;20152;-69
2023/08/08 12:43:34;;;;;;;4.90;0.90;;;;;;;;;;5072341;28;20088;-69
2023/08/08 12:46:00;;;;;;;3.83;0.80;;;;;;;;;;5072167;28;20117;-69
2023/08/08 12:48:26;;;;;;;7.90;1.30;;;;;;;;;;5089966;28;20036;-68
2023/08/08 12:50:52;;;;;;;3.53;0.98;;;;;;;;;;5090232;28;20024;-69
2023/08/08 12:53:18;;;;;;;4.07;1.30;;;;;;;;;;5090406;28;20093;-69
2023/08/08 12:55:45;;;;;;;4.25;1.00;;;;;;;;;;5073093;28;20035;-70
2023/08/08 12:58:11;;;;;;;6.63;1.50;;;;;;;;;;5091622;28;20036;-69
2023/08/08 13:00:37;;;;;;;7.75;1.27;;;;;;;;;;5094758;28;20036;-68
2023/08/08 13:03:03;;;;;;;6.25;1.17;;;;;;;;;;5094801;28;20040;-69
2023/08/08 13:05:29;;;;;;;2.70;1.20;;;;;;;;;;5076038;28;20051;-68
2023/08/08 13:07:56;;;;;;;6.05;1.17;;;;;;;;;;5075891;28;20040;-68
2023/08/08 13:10:22;;;;;;;4.82;1.33;;;;;;;;;;5094294;28;20371;-68
2023/08/08 13:12:48;;;;;;;5.13;1.10;;;;;;;;;;5076169;28;20040;-69
2023/08/08 13:15:15;;;;;;;4.68;1.13;;;;;;;;;;5094151;28;20051;-69
2023/08/08 13:17:41;;;;;;;3.08;1.15;;;;;;;;;;5075844;28;20557;-70
2023/08/08 13:20:07;;;;;;;5.25;1.40;;;;;;;;;;5093706;28;20039;-69
2023/08/08 13:22:33;;;;;;;6.10;1.50;;;;;;;;;;5075585;28;20032;-69
2023/08/08 13:25:00;;;;;;;8.40;1.52;;;;;;;;;;5093905;28;20042;-69
2023/08/08 13:27:26;;;;;;;5.70;1.30;;;;;;;;;;5075429;28;20047;-69
2023/08/08 13:29:52;;;;;;;7.57;1.15;;;;;;;;;;5093853;28;20378;-69
2023/08/08 13:32:18;;;;;;;5.85;1.30;;;;;;;;;;5093711;28;20093;-69
2023/08/08 13:34:44;;;;;;;3.97;1.10;;;;;;;;;;5055876;28;20036;-69
2023/08/08 13:37:10;;;;;;;4.68;1.33;;;;;;;;;;5073127;28;20102;-70
2023/08/08 13:39:36;;;;;;;5.60;1.30;;;;;;;;;;5073246;28;20036;-69
2023/08/08 13:42:03;;;;;;;3.55;1.48;;;;;;;;;;5055202;28;20119;-70
2023/08/08 13:44:29;;;;;;;4.57;1.05;;;;;;;;;;5051735;28;20041;-69
2023/08/08 13:46:55;;;;;;;2.78;1.27;;;;;;;;;;5051863;28;20059;-69
2023/08/08 13:49:26;;;;;;;3.63;1.45;;;;;;;;;;5053120;28;20029;-69
2023/08/08 13:51:52;;;;;;;3.22;1.20;;;;;;;;;;5053513;28;20033;-69
2023/08/08 13:54:18;;;;;;;4.30;1.13;;;;;;;;;;5053368;28;20032;-69
2023/08/08 13:56:44;;;;;;;3.10;1.25;;;;;;;;;;5053069;28;20061;-69
2023/08/08 13:59:11;;;;;;;9.00;1.88;;;;;;;;;;5053047;28;20037;-69
2023/08/08 14:01:37;;;;;;;3.55;1.10;;;;;;;;;;5053097;28;20265;-68
2023/08/08 14:04:04;;;;;;;2.92;1.02;;;;;;;;;;5053230;28;20056;-68
2023/08/08 14:06:30;;;;;;;5.10;1.55;;;;;;;;;;5052991;28;20037;-68
2023/08/08 14:08:56;;;;;;;4.68;1.50;;;;;;;;;;5052485;28;20033;-70
2023/08/08 14:11:23;;;;;;;7.43;1.38;;;;;;;;;;5052055;28;20045;-70
2023/08/08 14:13:49;;;;;;;2.75;1.13;;;;;;;;;;5051725;28;20465;-70
2023/08/08 14:16:15;;;;;;;7.47;1.13;;;;;;;;;;5052726;28;20087;-70
2023/08/08 14:18:41;;;;;;;7.60;1.58;;;;;;;;;;5052864;28;20068;-70
2023/08/08 14:21:07;;;;;;;6.13;1.13;;;;;;;;;;5056026;28;20505;-69
2023/08/08 14:23:33;;;;;;;5.78;1.23;;;;;;;;;;5071785;28;20032;-71
2023/08/08 14:26:00;;;;;;;6.47;1.30;;;;;;;;;;5072944;28;20044;-70
2023/08/08 14:28:26;;;;;;;4.15;1.20;;;;;;;;;;5072778;28;20558;-67
2023/08/08 14:30:52;;;;;;;4.97;1.00;;;;;;;;;;5054532;28;20033;-68
2023/08/08 14:33:18;;;;;;;8.18;1.60;;;;;;;;;;5064828;28;20033;-70
2023/08/08 14:35:44;;;;;;;5.03;1.40;;;;;;;;;;5052077;28;20033;-70
2023/08/08 14:38:10;;;;;;;4.40;1.13;;;;;;;;;;5050631;28;20094;-69